createdAt,value
2022-11-02T00:00:06.534Z,1024.61
2022-11-02T00:01:06.557Z,1024.59
2022-11-02T00:02:06.622Z,1024.61
2022-11-02T00:03:07.473Z,1024.54
2022-11-02T00:04:06.529Z,1024.49
2022-11-02T00:05:06.547Z,1024.51
2022-11-02T00:06:06.545Z,1024.5
2022-11-02T00:07:06.559Z,1024.57
2022-11-02T00:08:06.547Z,1024.59
2022-11-02T00:09:06.540Z,1024.59
2022-11-02T00:10:06.544Z,1024.58
2022-11-02T00:11:06.542Z,1024.54
2022-11-02T00:12:06.562Z,1024.56
2022-11-02T00:13:06.756Z,1024.57
2022-11-02T00:14:06.540Z,1024.52
2022-11-02T00:15:06.540Z,1024.53
2022-11-02T00:16:06.544Z,1024.54
2022-11-02T00:17:06.555Z,1024.61
2022-11-02T00:18:06.567Z,1024.58
2022-11-02T00:19:06.546Z,1024.57
2022-11-02T00:20:06.530Z,1024.57
2022-11-02T00:21:06.533Z,1024.57
2022-11-02T00:22:06.560Z,1024.63
2022-11-02T00:23:06.867Z,1024.61
2022-11-02T00:24:06.529Z,1024.67
2022-11-02T00:25:06.535Z,1024.66
2022-11-02T00:26:06.531Z,1024.7
2022-11-02T00:27:06.564Z,1024.69
2022-11-02T00:28:06.530Z,1024.67
2022-11-02T00:29:06.548Z,1024.71
2022-11-02T00:30:06.530Z,1024.74
2022-11-02T00:31:06.633Z,1024.71
2022-11-02T00:32:06.547Z,1024.73
2022-11-02T00:33:06.807Z,1024.78
2022-11-02T00:34:06.572Z,1024.75
2022-11-02T00:35:06.527Z,1024.73
2022-11-02T00:36:06.548Z,1024.73
2022-11-02T00:37:06.560Z,1024.74
2022-11-02T00:38:06.849Z,1024.66
2022-11-02T00:39:06.529Z,1024.71
2022-11-02T00:40:06.627Z,1024.69
2022-11-02T00:41:06.541Z,1024.67
2022-11-02T00:42:06.558Z,1024.64
2022-11-02T00:43:06.542Z,1024.67
2022-11-02T00:44:06.544Z,1024.66
2022-11-02T00:45:06.539Z,1024.63
2022-11-02T00:46:06.543Z,1024.67
2022-11-02T00:47:06.558Z,1024.7
2022-11-02T00:48:06.820Z,1024.68
2022-11-02T00:49:06.545Z,1024.67
2022-11-02T00:50:06.549Z,1024.6
2022-11-02T00:51:06.542Z,1024.68
2022-11-02T00:52:06.566Z,1024.66
2022-11-02T00:53:06.535Z,1024.68
2022-11-02T00:54:06.539Z,1024.71
2022-11-02T00:55:06.544Z,1024.75
2022-11-02T00:56:06.570Z,1024.73
2022-11-02T00:57:06.558Z,1024.74
2022-11-02T00:58:06.968Z,1024.73
2022-11-02T00:59:06.542Z,1024.74
2022-11-02T01:00:06.531Z,1024.71
2022-11-02T01:01:06.680Z,1024.74
2022-11-02T01:02:06.725Z,1024.73
2022-11-02T01:03:06.712Z,1024.76
2022-11-02T01:04:06.542Z,1024.75
2022-11-02T01:05:06.544Z,1024.76
2022-11-02T01:06:06.541Z,1024.78
2022-11-02T01:07:06.557Z,1024.76
2022-11-02T01:08:06.949Z,1024.81
2022-11-02T01:09:06.538Z,1024.81
2022-11-02T01:10:06.539Z,1024.75
2022-11-02T01:11:06.545Z,1024.78
2022-11-02T01:12:06.562Z,1024.79
2022-11-02T01:13:06.540Z,1024.79
2022-11-02T01:14:06.541Z,1024.85
2022-11-02T01:15:06.546Z,1024.86
2022-11-02T01:16:06.544Z,1024.86
2022-11-02T01:17:06.559Z,1024.85
2022-11-02T01:18:06.895Z,1024.8
2022-11-02T01:19:06.551Z,1024.84
2022-11-02T01:20:06.549Z,1024.83
2022-11-02T01:21:06.543Z,1024.87
2022-11-02T01:22:06.557Z,1024.87
2022-11-02T01:23:06.540Z,1024.88
2022-11-02T01:24:06.606Z,1024.86
2022-11-02T01:25:06.530Z,1024.83
2022-11-02T01:26:06.529Z,1024.83
2022-11-02T01:27:06.555Z,1024.84
2022-11-02T01:28:06.738Z,1024.83
2022-11-02T01:29:06.524Z,1024.82
2022-11-02T01:30:06.535Z,1024.81
2022-11-02T01:31:06.539Z,1024.81
2022-11-02T01:32:06.549Z,1024.84
2022-11-02T01:33:06.556Z,1024.82
2022-11-02T01:34:06.532Z,1024.81
2022-11-02T01:35:06.535Z,1024.82
2022-11-02T01:36:06.528Z,1024.84
2022-11-02T01:37:06.544Z,1024.87
2022-11-02T01:38:06.908Z,1024.82
2022-11-02T01:39:06.532Z,1024.82
2022-11-02T01:40:06.534Z,1024.82
2022-11-02T01:41:06.531Z,1024.82
2022-11-02T01:42:06.553Z,1024.8
2022-11-02T01:43:06.538Z,1024.81
2022-11-02T01:44:06.531Z,1024.75
2022-11-02T01:45:06.553Z,1024.75
2022-11-02T01:46:06.552Z,1024.81
2022-11-02T01:47:06.563Z,1024.8
2022-11-02T01:48:06.788Z,1024.77
2022-11-02T01:49:06.543Z,1024.76
2022-11-02T01:50:06.549Z,1024.77
2022-11-02T01:51:06.550Z,1024.77
2022-11-02T01:52:06.558Z,1024.73
2022-11-02T01:53:06.545Z,1024.74
2022-11-02T01:54:06.545Z,1024.77
2022-11-02T01:55:06.544Z,1024.73
2022-11-02T01:56:06.547Z,1024.77
2022-11-02T01:57:06.556Z,1024.75
2022-11-02T01:58:06.782Z,1024.78
2022-11-02T01:59:06.547Z,1024.76
2022-11-02T02:00:06.531Z,1024.76
2022-11-02T02:01:06.574Z,1024.79
2022-11-02T02:02:06.674Z,1024.76
2022-11-02T02:03:06.569Z,1024.79
2022-11-02T02:04:06.546Z,1024.76
2022-11-02T02:05:06.548Z,1024.78
2022-11-02T02:06:06.544Z,1024.76
2022-11-02T02:07:06.550Z,1024.77
2022-11-02T02:08:07.011Z,1024.7
2022-11-02T02:09:06.537Z,1024.7
2022-11-02T02:10:06.548Z,1024.76
2022-11-02T02:11:06.547Z,1024.73
2022-11-02T02:12:06.550Z,1024.74
2022-11-02T02:13:06.552Z,1024.73
2022-11-02T02:14:06.545Z,1024.74
2022-11-02T02:15:06.544Z,1024.73
2022-11-02T02:16:06.541Z,1024.68
2022-11-02T02:17:06.569Z,1024.68
2022-11-02T02:18:06.776Z,1024.65
2022-11-02T02:19:06.545Z,1024.64
2022-11-02T02:20:06.541Z,1024.63
2022-11-02T02:21:06.548Z,1024.68
2022-11-02T02:22:06.549Z,1024.69
2022-11-02T02:23:06.546Z,1024.7
2022-11-02T02:24:06.524Z,1024.7
2022-11-02T02:25:06.544Z,1024.68
2022-11-02T02:26:06.533Z,1024.66
2022-11-02T02:27:06.555Z,1024.69
2022-11-02T02:28:06.806Z,1024.71
2022-11-02T02:29:06.542Z,1024.71
2022-11-02T02:30:06.534Z,1024.71
2022-11-02T02:31:06.556Z,1024.73
2022-11-02T02:32:06.621Z,1024.75
2022-11-02T02:33:06.539Z,1024.74
2022-11-02T02:34:06.529Z,1024.78
2022-11-02T02:35:06.543Z,1024.79
2022-11-02T02:36:06.531Z,1024.77
2022-11-02T02:37:06.541Z,1024.75
2022-11-02T02:38:06.687Z,1024.77
2022-11-02T02:39:06.531Z,1024.78
2022-11-02T02:40:06.524Z,1024.76
2022-11-02T02:41:06.531Z,1024.73
2022-11-02T02:42:06.538Z,1024.73
2022-11-02T02:43:06.529Z,1024.74
2022-11-02T02:44:06.524Z,1024.7
2022-11-02T02:45:06.530Z,1024.71
2022-11-02T02:46:06.528Z,1024.67
2022-11-02T02:47:06.551Z,1024.73
2022-11-02T02:48:06.769Z,1024.74
2022-11-02T02:49:06.543Z,1024.71
2022-11-02T02:50:06.538Z,1024.73
2022-11-02T02:51:06.545Z,1024.7
2022-11-02T02:52:06.555Z,1024.69
2022-11-02T02:53:06.546Z,1024.71
2022-11-02T02:54:06.542Z,1024.74
2022-11-02T02:55:06.529Z,1024.74
2022-11-02T02:56:06.549Z,1024.75
2022-11-02T02:57:06.557Z,1024.75
2022-11-02T02:58:06.795Z,1024.75
2022-11-02T02:59:06.541Z,1024.7
2022-11-02T03:00:06.529Z,1024.75
2022-11-02T03:01:06.561Z,1024.74
2022-11-02T03:02:06.640Z,1024.71
2022-11-02T03:03:06.567Z,1024.68
2022-11-02T03:04:06.541Z,1024.71
2022-11-02T03:05:06.547Z,1024.69
2022-11-02T03:06:06.539Z,1024.73
2022-11-02T03:07:06.557Z,1024.71
2022-11-02T03:08:06.781Z,1024.73
2022-11-02T03:09:06.622Z,1024.73
2022-11-02T03:10:06.540Z,1024.7
2022-11-02T03:11:06.546Z,1024.69
2022-11-02T03:12:06.587Z,1024.71
2022-11-02T03:13:06.539Z,1024.73
2022-11-02T03:14:06.537Z,1024.7
2022-11-02T03:15:06.549Z,1024.7
2022-11-02T03:16:06.543Z,1024.7
2022-11-02T03:17:06.582Z,1024.73
2022-11-02T03:18:06.935Z,1024.75
2022-11-02T03:19:06.541Z,1024.74
2022-11-02T03:20:06.544Z,1024.77
2022-11-02T03:21:06.538Z,1024.81
2022-11-02T03:22:06.562Z,1024.82
2022-11-02T03:23:06.539Z,1024.8
2022-11-02T03:24:06.546Z,1024.82
2022-11-02T03:25:06.540Z,1024.84
2022-11-02T03:26:06.545Z,1024.84
2022-11-02T03:27:06.557Z,1024.86
2022-11-02T03:28:06.644Z,1024.87
2022-11-02T03:29:06.535Z,1024.89
2022-11-02T03:30:06.528Z,1024.87
2022-11-02T03:31:06.536Z,1024.88
2022-11-02T03:32:06.558Z,1024.88
2022-11-02T03:33:06.559Z,1024.92
2022-11-02T03:34:06.543Z,1024.91
2022-11-02T03:35:06.535Z,1024.9
2022-11-02T03:36:06.527Z,1024.88
2022-11-02T03:37:06.613Z,1024.96
2022-11-02T03:38:06.863Z,1025
2022-11-02T03:39:06.534Z,1024.99
2022-11-02T03:40:06.527Z,1024.96
2022-11-02T03:41:06.528Z,1024.98
2022-11-02T03:42:06.546Z,1025.01
2022-11-02T03:43:06.529Z,1024.97
2022-11-02T03:44:06.524Z,1025.01
2022-11-02T03:45:06.530Z,1025.02
2022-11-02T03:46:06.523Z,1025
2022-11-02T03:47:06.538Z,1025
2022-11-02T03:48:06.885Z,1024.99
2022-11-02T03:49:07.717Z,1024.93
2022-11-02T03:50:06.533Z,1024.94
2022-11-02T03:51:06.529Z,1024.91
2022-11-02T03:52:06.545Z,1024.92
2022-11-02T03:53:06.538Z,1024.91
2022-11-02T03:54:06.540Z,1024.89
2022-11-02T03:55:06.546Z,1024.91
2022-11-02T03:56:06.543Z,1024.9
2022-11-02T03:57:06.566Z,1024.93
2022-11-02T03:58:06.938Z,1024.92
2022-11-02T03:59:06.544Z,1024.96
2022-11-02T04:00:06.530Z,1024.98
2022-11-02T04:01:06.556Z,1024.98
2022-11-02T04:02:06.721Z,1024.94
2022-11-02T04:03:06.571Z,1024.97
2022-11-02T04:04:06.538Z,1024.99
2022-11-02T04:05:06.544Z,1024.94
2022-11-02T04:06:06.538Z,1024.99
2022-11-02T04:07:06.560Z,1024.93
2022-11-02T04:08:06.846Z,1024.93
2022-11-02T04:09:06.547Z,1024.93
2022-11-02T04:10:06.532Z,1024.94
2022-11-02T04:11:06.545Z,1024.94
2022-11-02T04:12:06.556Z,1024.96
2022-11-02T04:13:06.544Z,1024.97
2022-11-02T04:14:06.547Z,1024.97
2022-11-02T04:15:06.542Z,1024.97
2022-11-02T04:16:06.543Z,1024.98
2022-11-02T04:17:06.551Z,1024.96
2022-11-02T04:18:06.716Z,1024.98
2022-11-02T04:19:06.540Z,1025.01
2022-11-02T04:20:06.542Z,1024.98
2022-11-02T04:21:06.542Z,1025.02
2022-11-02T04:22:06.557Z,1025.05
2022-11-02T04:23:06.548Z,1025.05
2022-11-02T04:24:06.530Z,1025.06
2022-11-02T04:25:06.533Z,1025.05
2022-11-02T04:26:06.531Z,1025.04
2022-11-02T04:27:06.562Z,1025.04
2022-11-02T04:28:06.935Z,1025.01
2022-11-02T04:29:06.543Z,1025.02
2022-11-02T04:30:06.525Z,1025.02
2022-11-02T04:31:06.523Z,1025
2022-11-02T04:32:06.555Z,1025.04
2022-11-02T04:33:06.556Z,1025.01
2022-11-02T04:34:06.540Z,1024.99
2022-11-02T04:35:06.543Z,1024.94
2022-11-02T04:36:06.544Z,1024.94
2022-11-02T04:37:06.556Z,1024.97
2022-11-02T04:38:06.779Z,1024.97
2022-11-02T04:39:06.541Z,1024.97
2022-11-02T04:40:06.541Z,1024.99
2022-11-02T04:41:06.540Z,1025.03
2022-11-02T04:42:06.539Z,1025.07
2022-11-02T04:43:06.527Z,1025.03
2022-11-02T04:44:06.542Z,1025.03
2022-11-02T04:45:06.523Z,1025.03
2022-11-02T04:46:06.530Z,1025.02
2022-11-02T04:47:06.537Z,1025
2022-11-02T04:48:07.065Z,1024.98
2022-11-02T04:49:06.526Z,1024.97
2022-11-02T04:50:06.529Z,1024.99
2022-11-02T04:51:06.524Z,1024.96
2022-11-02T04:52:06.543Z,1024.94
2022-11-02T04:53:06.528Z,1024.93
2022-11-02T04:54:06.524Z,1024.94
2022-11-02T04:55:06.529Z,1024.88
2022-11-02T04:56:06.524Z,1024.92
2022-11-02T04:57:06.556Z,1024.92
2022-11-02T04:58:06.940Z,1024.87
2022-11-02T04:59:06.540Z,1024.84
2022-11-02T05:00:06.531Z,1024.87
2022-11-02T05:01:06.533Z,1024.82
2022-11-02T05:02:06.713Z,1024.88
2022-11-02T05:03:09.671Z,1024.89
2022-11-02T05:04:06.551Z,1024.88
2022-11-02T05:05:06.540Z,1024.88
2022-11-02T05:06:06.542Z,1024.85
2022-11-02T05:07:06.558Z,1024.89
2022-11-02T05:08:07.111Z,1024.86
2022-11-02T05:09:06.542Z,1024.86
2022-11-02T05:10:06.548Z,1024.9
2022-11-02T05:11:06.547Z,1024.91
2022-11-02T05:12:06.556Z,1024.92
2022-11-02T05:13:06.542Z,1024.98
2022-11-02T05:14:06.541Z,1024.9
2022-11-02T05:15:06.563Z,1024.87
2022-11-02T05:16:06.540Z,1024.86
2022-11-02T05:17:06.608Z,1024.9
2022-11-02T05:18:06.916Z,1024.93
2022-11-02T05:19:09.897Z,1024.98
2022-11-02T05:20:06.552Z,1024.99
2022-11-02T05:21:06.544Z,1024.97
2022-11-02T05:22:06.561Z,1024.98
2022-11-02T05:23:06.888Z,1025.02
2022-11-02T05:24:06.546Z,1024.99
2022-11-02T05:25:06.523Z,1025.03
2022-11-02T05:26:06.546Z,1025.03
2022-11-02T05:27:06.564Z,1025
2022-11-02T05:28:06.523Z,1025.03
2022-11-02T05:29:06.548Z,1025
2022-11-02T05:30:06.527Z,1024.96
2022-11-02T05:31:06.540Z,1024.99
2022-11-02T05:32:06.561Z,1024.94
2022-11-02T05:33:06.788Z,1024.97
2022-11-02T05:34:06.545Z,1024.97
2022-11-02T05:35:06.541Z,1024.92
2022-11-02T05:36:06.542Z,1024.93
2022-11-02T05:37:06.581Z,1025.02
2022-11-02T05:38:06.549Z,1024.98
2022-11-02T05:39:06.545Z,1024.94
2022-11-02T05:40:06.554Z,1025
2022-11-02T05:41:06.547Z,1024.99
2022-11-02T05:42:06.562Z,1024.98
2022-11-02T05:43:06.855Z,1025.02
2022-11-02T05:44:06.541Z,1025.03
2022-11-02T05:45:06.545Z,1025
2022-11-02T05:46:06.537Z,1025.02
2022-11-02T05:47:06.552Z,1024.99
2022-11-02T05:48:06.546Z,1025.02
2022-11-02T05:49:06.532Z,1025.01
2022-11-02T05:50:06.550Z,1025.04
2022-11-02T05:51:06.532Z,1025.04
2022-11-02T05:52:06.555Z,1025.02
2022-11-02T05:53:06.846Z,1024.98
2022-11-02T05:54:06.535Z,1025
2022-11-02T05:55:06.523Z,1025.03
2022-11-02T05:56:06.533Z,1025.04
2022-11-02T05:57:06.542Z,1025.07
2022-11-02T05:58:06.533Z,1025.07
2022-11-02T05:59:06.526Z,1025.13
2022-11-02T06:00:06.526Z,1025
2022-11-02T06:01:06.533Z,1025.02
2022-11-02T06:02:06.546Z,1025
2022-11-02T06:03:06.933Z,1025.02
2022-11-02T06:04:06.633Z,1025
2022-11-02T06:05:06.610Z,1025.01
2022-11-02T06:06:06.559Z,1025.03
2022-11-02T06:07:06.568Z,1024.97
2022-11-02T06:08:06.538Z,1024.99
2022-11-02T06:09:07.475Z,1024.99
2022-11-02T06:10:06.546Z,1024.99
2022-11-02T06:11:06.546Z,1025
2022-11-02T06:12:06.597Z,1025.01
2022-11-02T06:13:06.836Z,1024.97
2022-11-02T06:14:06.545Z,1025
2022-11-02T06:15:06.537Z,1025.01
2022-11-02T06:16:06.547Z,1025.05
2022-11-02T06:17:06.559Z,1025.08
2022-11-02T06:18:06.558Z,1025.08
2022-11-02T06:19:06.617Z,1025.04
2022-11-02T06:20:06.545Z,1025.1
2022-11-02T06:21:06.549Z,1025.08
2022-11-02T06:22:06.560Z,1025.11
2022-11-02T06:23:07.187Z,1025.06
2022-11-02T06:24:06.545Z,1025.07
2022-11-02T06:25:06.542Z,1025.05
2022-11-02T06:26:06.536Z,1025.11
2022-11-02T06:27:06.557Z,1025.1
2022-11-02T06:28:06.536Z,1025.16
2022-11-02T06:29:06.548Z,1025.19
2022-11-02T06:30:06.541Z,1025.17
2022-11-02T06:31:06.538Z,1025.2
2022-11-02T06:32:06.564Z,1025.17
2022-11-02T06:33:07.314Z,1025.13
2022-11-02T06:34:06.537Z,1025.14
2022-11-02T06:35:06.547Z,1025.15
2022-11-02T06:36:06.540Z,1025.1
2022-11-02T06:37:06.554Z,1025.09
2022-11-02T06:38:06.539Z,1025.1
2022-11-02T06:39:06.542Z,1025.06
2022-11-02T06:40:06.528Z,1025.11
2022-11-02T06:41:06.577Z,1025.17
2022-11-02T06:42:06.556Z,1025.16
2022-11-02T06:43:16.939Z,1025.21
2022-11-02T06:44:06.546Z,1025.14
2022-11-02T06:45:06.537Z,1025.22
2022-11-02T06:46:06.550Z,1025.2
2022-11-02T06:47:06.555Z,1025.26
2022-11-02T06:48:06.561Z,1025.2
2022-11-02T06:49:06.546Z,1025.2
2022-11-02T06:50:06.547Z,1025.22
2022-11-02T06:51:06.539Z,1025.24
2022-11-02T06:52:06.563Z,1025.28
2022-11-02T06:53:06.913Z,1025.31
2022-11-02T06:54:08.820Z,1025.3
2022-11-02T06:55:06.526Z,1025.26
2022-11-02T06:56:06.531Z,1025.31
2022-11-02T06:57:06.544Z,1025.37
2022-11-02T06:58:06.525Z,1025.4
2022-11-02T06:59:06.531Z,1025.37
2022-11-02T07:00:06.721Z,1025.4
2022-11-02T07:01:06.638Z,1025.34
2022-11-02T07:02:06.715Z,1025.35
2022-11-02T07:03:06.811Z,1025.37
2022-11-02T07:04:06.570Z,1025.34
2022-11-02T07:05:06.529Z,1025.37
2022-11-02T07:06:12.672Z,1025.39
2022-11-02T07:07:06.603Z,1025.51
2022-11-02T07:08:06.536Z,1025.47
2022-11-02T07:09:06.534Z,1025.47
2022-11-02T07:10:06.544Z,1025.48
2022-11-02T07:11:06.547Z,1025.49
2022-11-02T07:12:06.552Z,1025.5
2022-11-02T07:13:06.885Z,1025.48
2022-11-02T07:14:06.545Z,1025.49
2022-11-02T07:15:06.537Z,1025.46
2022-11-02T07:16:06.546Z,1025.52
2022-11-02T07:17:06.560Z,1025.49
2022-11-02T07:18:06.558Z,1025.59
2022-11-02T07:19:06.545Z,1025.59
2022-11-02T07:20:06.547Z,1025.54
2022-11-02T07:21:06.591Z,1025.57
2022-11-02T07:22:06.562Z,1025.58
2022-11-02T07:23:06.914Z,1025.52
2022-11-02T07:24:06.539Z,1025.48
2022-11-02T07:25:06.553Z,1025.49
2022-11-02T07:26:06.540Z,1025.5
2022-11-02T07:27:06.566Z,1025.53
2022-11-02T07:28:06.539Z,1025.54
2022-11-02T07:29:06.540Z,1025.52
2022-11-02T07:30:06.556Z,1025.49
2022-11-02T07:31:06.547Z,1025.44
2022-11-02T07:32:06.558Z,1025.49
2022-11-02T07:33:06.928Z,1025.46
2022-11-02T07:34:06.545Z,1025.46
2022-11-02T07:35:06.541Z,1025.48
2022-11-02T07:36:06.556Z,1025.46
2022-11-02T07:37:06.541Z,1025.43
2022-11-02T07:38:06.545Z,1025.47
2022-11-02T07:39:06.542Z,1025.49
2022-11-02T07:40:06.525Z,1025.51
2022-11-02T07:41:06.534Z,1025.56
2022-11-02T07:43:06.734Z,1025.55
2022-11-02T07:44:06.544Z,1025.58
2022-11-02T07:45:06.544Z,1025.48
2022-11-02T07:46:06.538Z,1025.49
2022-11-02T07:47:06.561Z,1025.55
2022-11-02T07:48:06.556Z,1025.57
2022-11-02T07:49:06.534Z,1025.53
2022-11-02T07:50:06.555Z,1025.49
2022-11-02T07:51:06.561Z,1025.42
2022-11-02T07:52:06.555Z,1025.47
2022-11-02T07:53:07.077Z,1025.43
2022-11-02T07:54:06.536Z,1025.39
2022-11-02T07:55:06.534Z,1025.38
2022-11-02T07:56:06.605Z,1025.4
2022-11-02T07:57:06.537Z,1025.35
2022-11-02T07:58:06.542Z,1025.38
2022-11-02T07:59:06.560Z,1025.43
2022-11-02T08:00:06.549Z,1025.43
2022-11-02T08:01:06.528Z,1025.43
2022-11-02T08:02:06.536Z,1025.54
2022-11-02T08:03:06.890Z,1025.43
2022-11-02T08:04:06.528Z,1025.39
2022-11-02T08:05:06.547Z,1025.43
2022-11-02T08:06:06.527Z,1025.44
2022-11-02T08:07:06.545Z,1025.45
2022-11-02T08:08:07.075Z,1025.44
2022-11-02T08:09:06.528Z,1025.44
2022-11-02T08:10:06.529Z,1025.44
2022-11-02T08:11:06.524Z,1025.38
2022-11-02T08:12:06.538Z,1025.42
2022-11-02T08:13:06.541Z,1025.4
2022-11-02T08:14:06.524Z,1025.46
2022-11-02T08:15:07.821Z,1025.49
2022-11-02T08:16:06.525Z,1025.48
2022-11-02T08:17:06.557Z,1025.43
2022-11-02T08:18:06.708Z,1025.39
2022-11-02T08:19:06.536Z,1025.34
2022-11-02T08:20:06.528Z,1025.38
2022-11-02T08:21:06.631Z,1025.35
2022-11-02T08:22:06.546Z,1025.31
2022-11-02T08:23:06.537Z,1025.3
2022-11-02T08:24:06.543Z,1025.19
2022-11-02T08:25:06.571Z,1025.21
2022-11-02T08:26:06.546Z,1025.24
2022-11-02T08:27:06.550Z,1025.28
2022-11-02T08:28:06.874Z,1025.28
2022-11-02T08:29:06.546Z,1025.23
2022-11-02T08:30:06.534Z,1025.25
2022-11-02T08:31:06.537Z,1025.23
2022-11-02T08:32:06.556Z,1025.26
2022-11-02T08:33:06.568Z,1025.19
2022-11-02T08:34:06.539Z,1025.12
2022-11-02T08:35:06.556Z,1025.25
2022-11-02T08:36:06.570Z,1025.12
2022-11-02T08:37:06.549Z,1025.05
2022-11-02T08:38:06.959Z,1025.05
2022-11-02T08:39:06.529Z,1025.05
2022-11-02T08:40:06.527Z,1025.05
2022-11-02T08:41:06.549Z,1025.06
2022-11-02T08:42:06.554Z,1025.06
2022-11-02T08:43:06.540Z,1025.05
2022-11-02T08:44:06.558Z,1025
2022-11-02T08:45:06.545Z,1025.09
2022-11-02T08:46:14.939Z,1025.06
2022-11-02T08:47:09.331Z,1025.03
2022-11-02T08:48:06.727Z,1024.98
2022-11-02T08:49:06.542Z,1025
2022-11-02T08:50:06.524Z,1024.97
2022-11-02T08:51:06.544Z,1024.97
2022-11-02T08:52:06.558Z,1024.96
2022-11-02T08:53:06.541Z,1025.07
2022-11-02T08:54:06.543Z,1025.01
2022-11-02T08:55:06.535Z,1024.96
2022-11-02T08:56:06.544Z,1024.94
2022-11-02T08:57:06.559Z,1025.01
2022-11-02T08:58:06.887Z,1024.91
2022-11-02T08:59:06.544Z,1024.99
2022-11-02T09:00:06.547Z,1024.94
2022-11-02T09:01:06.547Z,1025.13
2022-11-02T09:02:06.715Z,1024.99
2022-11-02T09:03:06.670Z,1025.09
2022-11-02T09:04:06.544Z,1024.98
2022-11-02T09:05:06.546Z,1025.05
2022-11-02T09:06:06.528Z,1025
2022-11-02T09:07:06.546Z,1025.03
2022-11-02T09:08:06.924Z,1025
2022-11-02T09:09:06.524Z,1025.02
2022-11-02T09:10:06.528Z,1025.07
2022-11-02T09:11:06.529Z,1025.11
2022-11-02T09:12:06.568Z,1025.01
2022-11-02T09:13:06.763Z,1025.06
2022-11-02T09:14:06.571Z,1025.01
2022-11-02T09:15:06.526Z,1025.03
2022-11-02T09:16:06.532Z,1025.13
2022-11-02T09:17:06.546Z,1024.96
2022-11-02T09:18:07.035Z,1025.02
2022-11-02T09:19:06.532Z,1025.12
2022-11-02T09:20:06.551Z,1025.19
2022-11-02T09:21:06.531Z,1025.07
2022-11-02T09:22:06.546Z,1025.05
2022-11-02T09:23:06.535Z,1025.13
2022-11-02T09:24:06.525Z,1025.05
2022-11-02T09:25:06.530Z,1025.23
2022-11-02T09:26:06.533Z,1025.22
2022-11-02T09:27:06.542Z,1025.07
2022-11-02T09:28:06.910Z,1025.13
2022-11-02T09:29:06.543Z,1025.11
2022-11-02T09:30:06.547Z,1025.15
2022-11-02T09:31:09.068Z,1025.12
2022-11-02T09:32:06.654Z,1025.21
2022-11-02T09:33:06.967Z,1025.08
2022-11-02T09:34:06.545Z,1025.22
2022-11-02T09:35:06.538Z,1025.24
2022-11-02T09:36:06.541Z,1025.19
2022-11-02T09:37:06.556Z,1025.02
2022-11-02T09:38:06.542Z,1025.17
2022-11-02T09:39:06.549Z,1025.04
2022-11-02T09:40:06.556Z,1025.04
2022-11-02T09:41:06.539Z,1025.28
2022-11-02T09:42:06.560Z,1025.12
2022-11-02T09:43:06.856Z,1025.2
2022-11-02T09:44:06.538Z,1025.17
2022-11-02T09:45:06.537Z,1025.12
2022-11-02T09:46:06.553Z,1025.13
2022-11-02T09:47:55.636Z,1025.25
2022-11-02T09:48:17.964Z,1025.16
2022-11-02T09:49:06.546Z,1025.07
2022-11-02T09:50:06.526Z,1025.19
2022-11-02T09:51:06.547Z,1025.23
2022-11-02T09:52:06.560Z,1025.22
2022-11-02T09:53:06.920Z,1025.2
2022-11-02T09:54:06.550Z,1025.32
2022-11-02T09:55:06.547Z,1025.2
2022-11-02T09:56:06.542Z,1025.32
2022-11-02T09:57:06.562Z,1025.31
2022-11-02T09:58:06.746Z,1025.28
2022-11-02T09:59:06.540Z,1025.3
2022-11-02T10:00:06.544Z,1025.32
2022-11-02T10:01:06.589Z,1025.43
2022-11-02T10:02:06.729Z,1025.32
2022-11-02T10:03:06.595Z,1025.3
2022-11-02T10:04:06.540Z,1025.34
2022-11-02T10:05:06.537Z,1025.33
2022-11-02T10:06:06.574Z,1025.35
2022-11-02T10:07:06.562Z,1025.36
2022-11-02T10:08:06.871Z,1025.43
2022-11-02T10:09:06.543Z,1025.35
2022-11-02T10:10:06.534Z,1025.39
2022-11-02T10:11:08.318Z,1025.35
2022-11-02T10:12:06.565Z,1025.38
2022-11-02T10:13:06.981Z,1025.34
2022-11-02T10:14:06.559Z,1025.38
2022-11-02T10:15:06.542Z,1025.39
2022-11-02T10:16:06.526Z,1025.37
2022-11-02T10:17:06.691Z,1025.31
2022-11-02T10:18:06.542Z,1025.32
2022-11-02T10:19:06.534Z,1025.33
2022-11-02T10:20:06.524Z,1025.35
2022-11-02T10:21:06.525Z,1025.42
2022-11-02T10:22:06.542Z,1025.32
2022-11-02T10:23:06.786Z,1025.37
2022-11-02T10:24:06.528Z,1025.31
2022-11-02T10:25:06.530Z,1025.34
2022-11-02T10:26:06.534Z,1025.3
2022-11-02T10:27:11.585Z,1025.31
2022-11-02T10:28:06.580Z,1025.27
2022-11-02T10:29:06.524Z,1025.31
2022-11-02T10:30:06.527Z,1025.3
2022-11-02T10:31:06.528Z,1025.28
2022-11-02T10:32:06.541Z,1025.2
2022-11-02T10:33:06.848Z,1025.21
2022-11-02T10:34:06.528Z,1025.21
2022-11-02T10:35:26.402Z,1025.25
2022-11-02T10:36:19.021Z,1025.29
2022-11-02T10:37:06.543Z,1025.36
2022-11-02T10:38:11.924Z,1025.21
2022-11-02T10:39:06.551Z,1025.12
2022-11-02T10:40:06.541Z,1025.12
2022-11-02T10:41:06.539Z,1025.21
2022-11-02T10:42:06.549Z,1025.17
2022-11-02T10:43:06.545Z,1025.25
2022-11-02T10:44:06.543Z,1025.21
2022-11-02T10:45:06.545Z,1025.21
2022-11-02T10:46:06.543Z,1025.26
2022-11-02T10:47:06.555Z,1025.24
2022-11-02T10:48:06.766Z,1025.27
2022-11-02T10:49:06.540Z,1025.26
2022-11-02T10:50:11.861Z,1025.29
2022-11-02T10:51:06.614Z,1025.48
2022-11-02T10:52:06.556Z,1025.28
2022-11-02T10:53:27.367Z,1025.31
2022-11-02T10:55:06.533Z,1025.19
2022-11-02T10:56:06.538Z,1025.21
2022-11-02T10:57:06.559Z,1025.2
2022-11-02T10:58:06.904Z,1025.16
2022-11-02T10:59:06.545Z,1025.17
2022-11-02T11:00:06.549Z,1025.21
2022-11-02T11:01:06.600Z,1025.2
2022-11-02T11:02:06.613Z,1025.21
2022-11-02T11:03:06.562Z,1025.23
2022-11-02T11:04:06.538Z,1025.23
2022-11-02T11:05:06.542Z,1025.2
2022-11-02T11:06:06.544Z,1025.31
2022-11-02T11:07:06.557Z,1025.35
2022-11-02T11:08:06.843Z,1025.28
2022-11-02T11:09:06.536Z,1025.3
2022-11-02T11:10:06.549Z,1025.31
2022-11-02T11:11:06.548Z,1025.29
2022-11-02T11:12:06.550Z,1025.28
2022-11-02T11:13:07.624Z,1025.33
2022-11-02T11:16:06.534Z,1025.37
2022-11-02T11:20:07.378Z,1025.36
2022-11-02T11:21:06.550Z,1025.34
2022-11-02T11:22:06.563Z,1025.29
2022-11-02T11:23:06.713Z,1025.35
2022-11-02T11:24:06.582Z,1025.3
2022-11-02T11:25:06.550Z,1025.35
2022-11-02T11:26:06.541Z,1025.33
2022-11-02T11:27:06.547Z,1025.29
2022-11-02T11:28:06.683Z,1025.31
2022-11-02T11:29:06.529Z,1025.29
2022-11-02T11:30:06.545Z,1025.37
2022-11-02T11:31:06.527Z,1025.3
2022-11-02T11:32:06.542Z,1025.28
2022-11-02T11:33:06.544Z,1025.38
2022-11-02T11:34:06.523Z,1025.28
2022-11-02T11:35:06.563Z,1025.33
2022-11-02T11:36:06.530Z,1025.32
2022-11-02T11:37:06.536Z,1025.3
2022-11-02T11:38:06.932Z,1025.27
2022-11-02T11:39:06.529Z,1025.28
2022-11-02T11:40:06.521Z,1025.28
2022-11-02T11:41:06.524Z,1025.38
2022-11-02T11:42:06.556Z,1025.28
2022-11-02T11:43:06.523Z,1025.21
2022-11-02T11:44:06.539Z,1025.21
2022-11-02T11:45:06.531Z,1025.14
2022-11-02T11:46:07.160Z,1025.14
2022-11-02T11:47:06.546Z,1025.1
2022-11-02T11:48:06.898Z,1025.15
2022-11-02T11:49:06.534Z,1025.2
2022-11-02T11:50:16.380Z,1025.11
2022-11-02T11:51:06.542Z,1025.12
2022-11-02T11:52:06.557Z,1025.14
2022-11-02T11:53:06.942Z,1025.11
2022-11-02T11:54:06.555Z,1025.12
2022-11-02T11:55:06.543Z,1025.09
2022-11-02T11:56:06.560Z,1025.09
2022-11-02T11:57:06.550Z,1025.12
2022-11-02T11:58:07.125Z,1025.16
2022-11-02T11:59:06.539Z,1025.13
2022-11-02T12:00:06.527Z,1025.15
2022-11-02T12:01:09.233Z,1025.22
2022-11-02T12:02:06.658Z,1025.17
2022-11-02T12:03:07.195Z,1025.14
2022-11-02T12:04:06.536Z,1025.14
2022-11-02T12:05:06.548Z,1025.16
2022-11-02T12:06:06.540Z,1025.09
2022-11-02T12:07:06.563Z,1025.05
2022-11-02T12:08:07.045Z,1025.01
2022-11-02T12:09:06.545Z,1025.03
2022-11-02T12:10:06.532Z,1025.04
2022-11-02T12:11:06.547Z,1025.04
2022-11-02T12:12:06.554Z,1025.01
2022-11-02T12:13:07.038Z,1025.06
2022-11-02T12:14:06.541Z,1025.05
2022-11-02T12:15:07.056Z,1025
2022-11-02T12:16:06.542Z,1025.04